sensor_id;sensor_type;location;lat;lon;timestamp;P1;durP1;ratioP1;P2;durP2;ratioP2
5762;SDS011;2906;53.282;9.508;2022-10-16T00:01:04;17.58;;;7.70;;
5762;SDS011;2906;53.282;9.508;2022-10-16T00:02:06;14.02;;;6.65;;
5762;SDS011;2906;53.282;9.508;2022-10-16T00:03:07;13.63;;;7.38;;
5762;SDS011;2906;53.282;9.508;2022-10-16T00:04:11;16.35;;;7.57;;
5762;SDS011;2906;53.282;9.508;2022-10-16T00:05:12;14.35;;;7.68;;
5762;SDS011;2906;53.282;9.508;2022-10-16T00:06:16;14.73;;;7.13;;
5762;SDS011;2906;53.282;9.508;2022-10-16T00:07:17;17.13;;;6.60;;
5762;SDS011;2906;53.282;9.508;2022-10-16T00:08:19;12.80;;;7.03;;
5762;SDS011;2906;53.282;9.508;2022-10-16T00:09:21;14.77;;;6.85;;
5762;SDS011;2906;53.282;9.508;2022-10-16T00:10:23;24.90;;;7.50;;
5762;SDS011;2906;53.282;9.508;2022-10-16T00:11:25;16.95;;;7.18;;
5762;SDS011;2906;53.282;9.508;2022-10-16T00:12:28;12.77;;;5.88;;
5762;SDS011;2906;53.282;9.508;2022-10-16T00:13:29;12.98;;;6.22;;
5762;SDS011;2906;53.282;9.508;2022-10-16T00:14:31;17.25;;;6.53;;
5762;SDS011;2906;53.282;9.508;2022-10-16T00:15:33;14.25;;;6.80;;
5762;SDS011;2906;53.282;9.508;2022-10-16T00:16:36;13.50;;;6.13;;
5762;SDS011;2906;53.282;9.508;2022-10-16T00:17:37;16.30;;;6.50;;
5762;SDS011;2906;53.282;9.508;2022-10-16T00:18:39;13.38;;;5.70;;
5762;SDS011;2906;53.282;9.508;2022-10-16T00:19:42;13.48;;;5.63;;
5762;SDS011;2906;53.282;9.508;2022-10-16T00:20:44;20.67;;;6.15;;
5762;SDS011;2906;53.282;9.508;2022-10-16T00:21:45;14.50;;;5.95;;
5762;SDS011;2906;53.282;9.508;2022-10-16T00:22:48;13.13;;;5.55;;
5762;SDS011;2906;53.282;9.508;2022-10-16T00:23:49;13.20;;;5.50;;
5762;SDS011;2906;53.282;9.508;2022-10-16T00:24:52;14.65;;;5.47;;
5762;SDS011;2906;53.282;9.508;2022-10-16T00:25:54;14.75;;;5.90;;
5762;SDS011;2906;53.282;9.508;2022-10-16T00:26:57;10.80;;;5.18;;
5762;SDS011;2906;53.282;9.508;2022-10-16T00:27:59;13.50;;;5.30;;
5762;SDS011;2906;53.282;9.508;2022-10-16T00:29:01;11.70;;;5.00;;
5762;SDS011;2906;53.282;9.508;2022-10-16T00:30:03;11.18;;;4.95;;
5762;SDS011;2906;53.282;9.508;2022-10-16T00:31:05;11.80;;;4.70;;
5762;SDS011;2906;53.282;9.508;2022-10-16T00:32:08;12.95;;;4.75;;
5762;SDS011;2906;53.282;9.508;2022-10-16T00:33:09;15.57;;;4.60;;
5762;SDS011;2906;53.282;9.508;2022-10-16T00:34:11;9.40;;;4.18;;
5762;SDS011;2906;53.282;9.508;2022-10-16T00:35:15;16.55;;;4.30;;
5762;SDS011;2906;53.282;9.508;2022-10-16T00:36:17;15.15;;;4.55;;
5762;SDS011;2906;53.282;9.508;2022-10-16T00:37:20;9.98;;;3.88;;
5762;SDS011;2906;53.282;9.508;2022-10-16T00:38:21;14.55;;;4.43;;
5762;SDS011;2906;53.282;9.508;2022-10-16T00:39:23;14.52;;;4.40;;
5762;SDS011;2906;53.282;9.508;2022-10-16T00:40:25;12.43;;;4.00;;
5762;SDS011;2906;53.282;9.508;2022-10-16T00:41:29;11.85;;;4.20;;
5762;SDS011;2906;53.282;9.508;2022-10-16T00:42:30;11.70;;;4.13;;
5762;SDS011;2906;53.282;9.508;2022-10-16T00:43:34;9.65;;;3.58;;
5762;SDS011;2906;53.282;9.508;2022-10-16T00:44:44;11.25;;;3.80;;
5762;SDS011;2906;53.282;9.508;2022-10-16T00:45:46;9.57;;;3.15;;
5762;SDS011;2906;53.282;9.508;2022-10-16T00:46:48;7.85;;;3.20;;
5762;SDS011;2906;53.282;9.508;2022-10-16T00:47:50;11.10;;;3.70;;
5762;SDS011;2906;53.282;9.508;2022-10-16T00:48:54;15.05;;;3.88;;
5762;SDS011;2906;53.282;9.508;2022-10-16T00:50:00;9.60;;;3.78;;
5762;SDS011;2906;53.282;9.508;2022-10-16T00:51:04;12.73;;;3.33;;
5762;SDS011;2906;53.282;9.508;2022-10-16T00:52:07;14.07;;;2.63;;
5762;SDS011;2906;53.282;9.508;2022-10-16T00:53:08;12.35;;;3.72;;
5762;SDS011;2906;53.282;9.508;2022-10-16T00:54:12;8.10;;;2.70;;
5762;SDS011;2906;53.282;9.508;2022-10-16T00:55:14;10.55;;;2.88;;
5762;SDS011;2906;53.282;9.508;2022-10-16T00:56:16;11.15;;;3.10;;
5762;SDS011;2906;53.282;9.508;2022-10-16T00:57:18;10.60;;;2.85;;
5762;SDS011;2906;53.282;9.508;2022-10-16T00:58:20;8.07;;;2.85;;
5762;SDS011;2906;53.282;9.508;2022-10-16T00:59:22;8.30;;;2.40;;
5762;SDS011;2906;53.282;9.508;2022-10-16T01:00:26;9.02;;;2.40;;
5762;SDS011;2906;53.282;9.508;2022-10-16T01:01:27;10.32;;;2.63;;
5762;SDS011;2906;53.282;9.508;2022-10-16T01:02:30;13.68;;;2.33;;
5762;SDS011;2906;53.282;9.508;2022-10-16T01:03:32;14.13;;;2.72;;
5762;SDS011;2906;53.282;9.508;2022-10-16T01:04:35;9.15;;;2.85;;
5762;SDS011;2906;53.282;9.508;2022-10-16T01:05:38;8.15;;;2.28;;
5762;SDS011;2906;53.282;9.508;2022-10-16T01:06:43;9.52;;;2.20;;
5762;SDS011;2906;53.282;9.508;2022-10-16T01:07:49;9.52;;;2.80;;
5762;SDS011;2906;53.282;9.508;2022-10-16T01:09:01;9.27;;;2.40;;
5762;SDS011;2906;53.282;9.508;2022-10-16T01:10:06;7.70;;;2.33;;
5762;SDS011;2906;53.282;9.508;2022-10-16T01:11:10;10.80;;;2.20;;
5762;SDS011;2906;53.282;9.508;2022-10-16T01:12:15;8.38;;;2.67;;
5762;SDS011;2906;53.282;9.508;2022-10-16T01:13:21;9.05;;;2.35;;
5762;SDS011;2906;53.282;9.508;2022-10-16T01:14:24;7.63;;;2.22;;
5762;SDS011;2906;53.282;9.508;2022-10-16T01:15:29;8.73;;;2.53;;
5762;SDS011;2906;53.282;9.508;2022-10-16T01:16:33;11.43;;;2.47;;
5762;SDS011;2906;53.282;9.508;2022-10-16T01:17:38;7.85;;;2.72;;
5762;SDS011;2906;53.282;9.508;2022-10-16T01:18:42;8.18;;;2.08;;
5762;SDS011;2906;53.282;9.508;2022-10-16T01:19:50;8.55;;;2.30;;
5762;SDS011;2906;53.282;9.508;2022-10-16T01:20:59;8.07;;;2.10;;
5762;SDS011;2906;53.282;9.508;2022-10-16T01:22:03;9.25;;;2.40;;
5762;SDS011;2906;53.282;9.508;2022-10-16T01:23:10;8.48;;;2.40;;
5762;SDS011;2906;53.282;9.508;2022-10-16T01:24:17;8.63;;;2.28;;
5762;SDS011;2906;53.282;9.508;2022-10-16T01:25:23;9.10;;;2.13;;
5762;SDS011;2906;53.282;9.508;2022-10-16T01:26:31;7.78;;;1.90;;
5762;SDS011;2906;53.282;9.508;2022-10-16T01:27:36;7.88;;;2.00;;
5762;SDS011;2906;53.282;9.508;2022-10-16T01:28:42;7.72;;;2.40;;
5762;SDS011;2906;53.282;9.508;2022-10-16T01:29:48;9.20;;;2.00;;
5762;SDS011;2906;53.282;9.508;2022-10-16T01:30:51;8.48;;;1.80;;
5762;SDS011;2906;53.282;9.508;2022-10-16T01:31:59;13.80;;;2.20;;
5762;SDS011;2906;53.282;9.508;2022-10-16T01:33:02;11.95;;;2.00;;
5762;SDS011;2906;53.282;9.508;2022-10-16T01:34:08;8.35;;;2.00;;
5762;SDS011;2906;53.282;9.508;2022-10-16T01:35:14;9.35;;;1.77;;
5762;SDS011;2906;53.282;9.508;2022-10-16T01:36:20;8.52;;;1.80;;
5762;SDS011;2906;53.282;9.508;2022-10-16T01:37:27;7.78;;;1.80;;
5762;SDS011;2906;53.282;9.508;2022-10-16T01:38:31;12.10;;;1.60;;
5762;SDS011;2906;53.282;9.508;2022-10-16T01:39:35;6.72;;;1.70;;
5762;SDS011;2906;53.282;9.508;2022-10-16T01:40:39;10.48;;;2.10;;
5762;SDS011;2906;53.282;9.508;2022-10-16T01:41:44;7.30;;;1.73;;
5762;SDS011;2906;53.282;9.508;2022-10-16T01:42:49;10.18;;;2.10;;
5762;SDS011;2906;53.282;9.508;2022-10-16T01:43:55;9.40;;;2.65;;
5762;SDS011;2906;53.282;9.508;2022-10-16T01:44:59;8.50;;;2.35;;
5762;SDS011;2906;53.282;9.508;2022-10-16T01:46:02;7.93;;;1.60;;
5762;SDS011;2906;53.282;9.508;2022-10-16T01:47:03;7.40;;;1.98;;
5762;SDS011;2906;53.282;9.508;2022-10-16T01:48:06;8.82;;;1.80;;
5762;SDS011;2906;53.282;9.508;2022-10-16T01:49:09;10.07;;;1.80;;
5762;SDS011;2906;53.282;9.508;2022-10-16T01:50:12;12.05;;;2.20;;
5762;SDS011;2906;53.282;9.508;2022-10-16T01:51:15;6.40;;;1.83;;
5762;SDS011;2906;53.282;9.508;2022-10-16T01:52:19;9.02;;;2.00;;
5762;SDS011;2906;53.282;9.508;2022-10-16T01:53:22;8.77;;;2.20;;
5762;SDS011;2906;53.282;9.508;2022-10-16T01:54:25;9.60;;;1.80;;
5762;SDS011;2906;53.282;9.508;2022-10-16T01:55:28;7.65;;;1.90;;
5762;SDS011;2906;53.282;9.508;2022-10-16T01:56:31;9.20;;;1.90;;
5762;SDS011;2906;53.282;9.508;2022-10-16T01:57:33;8.65;;;1.55;;
5762;SDS011;2906;53.282;9.508;2022-10-16T01:58:42;7.32;;;1.60;;
5762;SDS011;2906;53.282;9.508;2022-10-16T01:59:46;6.05;;;1.77;;
5762;SDS011;2906;53.282;9.508;2022-10-16T02:00:48;10.43;;;2.08;;
5762;SDS011;2906;53.282;9.508;2022-10-16T02:01:51;9.10;;;1.70;;
5762;SDS011;2906;53.282;9.508;2022-10-16T02:02:54;7.05;;;1.80;;
5762;SDS011;2906;53.282;9.508;2022-10-16T02:03:57;9.32;;;1.90;;
5762;SDS011;2906;53.282;9.508;2022-10-16T02:05:02;6.78;;;1.52;;
5762;SDS011;2906;53.282;9.508;2022-10-16T02:06:06;9.95;;;1.65;;
5762;SDS011;2906;53.282;9.508;2022-10-16T02:07:08;10.93;;;1.80;;
5762;SDS011;2906;53.282;9.508;2022-10-16T02:08:10;6.65;;;1.85;;
5762;SDS011;2906;53.282;9.508;2022-10-16T02:09:12;9.35;;;1.85;;
5762;SDS011;2906;53.282;9.508;2022-10-16T02:10:16;6.47;;;1.73;;
5762;SDS011;2906;53.282;9.508;2022-10-16T02:11:19;7.25;;;1.80;;
5762;SDS011;2906;53.282;9.508;2022-10-16T02:12:22;7.38;;;1.95;;
5762;SDS011;2906;53.282;9.508;2022-10-16T02:13:28;7.88;;;1.90;;
5762;SDS011;2906;53.282;9.508;2022-10-16T02:14:31;13.45;;;2.08;;
5762;SDS011;2906;53.282;9.508;2022-10-16T02:15:34;11.25;;;2.58;;
5762;SDS011;2906;53.282;9.508;2022-10-16T02:16:36;6.97;;;1.60;;
5762;SDS011;2906;53.282;9.508;2022-10-16T02:17:39;7.97;;;1.92;;
5762;SDS011;2906;53.282;9.508;2022-10-16T02:18:40;7.15;;;1.65;;
5762;SDS011;2906;53.282;9.508;2022-10-16T02:19:44;7.55;;;1.83;;
5762;SDS011;2906;53.282;9.508;2022-10-16T02:20:48;8.20;;;2.38;;
5762;SDS011;2906;53.282;9.508;2022-10-16T02:21:54;8.23;;;1.50;;
5762;SDS011;2906;53.282;9.508;2022-10-16T02:22:56;7.70;;;1.98;;
5762;SDS011;2906;53.282;9.508;2022-10-16T02:24:00;8.63;;;2.17;;
5762;SDS011;2906;53.282;9.508;2022-10-16T02:25:05;9.25;;;2.00;;
5762;SDS011;2906;53.282;9.508;2022-10-16T02:26:08;5.18;;;1.67;;
5762;SDS011;2906;53.282;9.508;2022-10-16T02:27:13;9.65;;;2.10;;
5762;SDS011;2906;53.282;9.508;2022-10-16T02:28:22;6.32;;;1.75;;
5762;SDS011;2906;53.282;9.508;2022-10-16T02:29:26;7.40;;;1.73;;
5762;SDS011;2906;53.282;9.508;2022-10-16T02:30:30;10.10;;;2.15;;
5762;SDS011;2906;53.282;9.508;2022-10-16T02:31:34;11.73;;;2.35;;
5762;SDS011;2906;53.282;9.508;2022-10-16T02:32:38;8.52;;;1.83;;
5762;SDS011;2906;53.282;9.508;2022-10-16T02:33:40;8.23;;;2.08;;
5762;SDS011;2906;53.282;9.508;2022-10-16T02:34:44;8.27;;;1.77;;
5762;SDS011;2906;53.282;9.508;2022-10-16T02:35:46;7.75;;;1.40;;
5762;SDS011;2906;53.282;9.508;2022-10-16T02:36:50;8.38;;;2.08;;
5762;SDS011;2906;53.282;9.508;2022-10-16T02:37:52;10.57;;;2.08;;
5762;SDS011;2906;53.282;9.508;2022-10-16T02:38:55;7.55;;;1.92;;
5762;SDS011;2906;53.282;9.508;2022-10-16T02:39:56;8.60;;;2.00;;
5762;SDS011;2906;53.282;9.508;2022-10-16T02:41:00;6.90;;;2.00;;
5762;SDS011;2906;53.282;9.508;2022-10-16T02:42:01;6.47;;;1.80;;
5762;SDS011;2906;53.282;9.508;2022-10-16T02:43:04;7.05;;;1.80;;
5762;SDS011;2906;53.282;9.508;2022-10-16T02:44:05;7.75;;;1.90;;
5762;SDS011;2906;53.282;9.508;2022-10-16T02:45:08;7.43;;;2.22;;
5762;SDS011;2906;53.282;9.508;2022-10-16T02:46:11;8.85;;;2.17;;
5762;SDS011;2906;53.282;9.508;2022-10-16T02:47:14;8.68;;;2.10;;
5762;SDS011;2906;53.282;9.508;2022-10-16T02:48:15;9.65;;;2.05;;
5762;SDS011;2906;53.282;9.508;2022-10-16T02:49:17;6.72;;;1.48;;
5762;SDS011;2906;53.282;9.508;2022-10-16T02:50:19;7.05;;;1.80;;
5762;SDS011;2906;53.282;9.508;2022-10-16T02:51:22;7.10;;;1.45;;
5762;SDS011;2906;53.282;9.508;2022-10-16T02:52:24;13.13;;;1.88;;
5762;SDS011;2906;53.282;9.508;2022-10-16T02:53:26;17.90;;;2.78;;
5762;SDS011;2906;53.282;9.508;2022-10-16T02:54:27;7.07;;;2.05;;
5762;SDS011;2906;53.282;9.508;2022-10-16T02:55:30;8.90;;;2.03;;
5762;SDS011;2906;53.282;9.508;2022-10-16T02:56:31;7.00;;;1.92;;
5762;SDS011;2906;53.282;9.508;2022-10-16T02:57:34;8.45;;;1.85;;
5762;SDS011;2906;53.282;9.508;2022-10-16T02:58:36;10.23;;;2.53;;
5762;SDS011;2906;53.282;9.508;2022-10-16T02:59:38;8.07;;;1.80;;
5762;SDS011;2906;53.282;9.508;2022-10-16T03:00:40;12.20;;;2.20;;
5762;SDS011;2906;53.282;9.508;2022-10-16T03:01:43;7.82;;;2.08;;
5762;SDS011;2906;53.282;9.508;2022-10-16T03:02:45;11.23;;;2.10;;
5762;SDS011;2906;53.282;9.508;2022-10-16T03:03:47;7.53;;;1.90;;
5762;SDS011;2906;53.282;9.508;2022-10-16T03:04:49;6.45;;;1.90;;
5762;SDS011;2906;53.282;9.508;2022-10-16T03:05:51;8.23;;;2.10;;
5762;SDS011;2906;53.282;9.508;2022-10-16T03:06:52;9.32;;;2.38;;
5762;SDS011;2906;53.282;9.508;2022-10-16T03:07:54;10.73;;;2.20;;
5762;SDS011;2906;53.282;9.508;2022-10-16T03:08:56;8.10;;;2.17;;
5762;SDS011;2906;53.282;9.508;2022-10-16T03:09:58;9.90;;;2.03;;
5762;SDS011;2906;53.282;9.508;2022-10-16T03:11:00;13.07;;;2.70;;
5762;SDS011;2906;53.282;9.508;2022-10-16T03:12:02;10.88;;;2.40;;
5762;SDS011;2906;53.282;9.508;2022-10-16T03:13:03;6.63;;;1.90;;
5762;SDS011;2906;53.282;9.508;2022-10-16T03:14:06;6.85;;;1.70;;
5762;SDS011;2906;53.282;9.508;2022-10-16T03:15:07;7.93;;;1.83;;
5762;SDS011;2906;53.282;9.508;2022-10-16T03:16:10;11.23;;;2.40;;
5762;SDS011;2906;53.282;9.508;2022-10-16T03:17:12;12.23;;;2.17;;
5762;SDS011;2906;53.282;9.508;2022-10-16T03:18:16;7.38;;;1.98;;
5762;SDS011;2906;53.282;9.508;2022-10-16T03:19:18;6.25;;;1.95;;
5762;SDS011;2906;53.282;9.508;2022-10-16T03:20:21;8.65;;;1.92;;
5762;SDS011;2906;53.282;9.508;2022-10-16T03:21:22;6.50;;;1.80;;
5762;SDS011;2906;53.282;9.508;2022-10-16T03:22:24;9.90;;;2.00;;
5762;SDS011;2906;53.282;9.508;2022-10-16T03:23:26;11.55;;;2.30;;
5762;SDS011;2906;53.282;9.508;2022-10-16T03:24:28;6.93;;;1.80;;
5762;SDS011;2906;53.282;9.508;2022-10-16T03:25:30;9.18;;;1.95;;
5762;SDS011;2906;53.282;9.508;2022-10-16T03:26:32;8.68;;;1.95;;
5762;SDS011;2906;53.282;9.508;2022-10-16T03:27:33;9.55;;;2.33;;
5762;SDS011;2906;53.282;9.508;2022-10-16T03:28:35;13.23;;;2.45;;
5762;SDS011;2906;53.282;9.508;2022-10-16T03:29:37;15.25;;;3.30;;
5762;SDS011;2906;53.282;9.508;2022-10-16T03:30:39;6.55;;;2.10;;
5762;SDS011;2906;53.282;9.508;2022-10-16T03:31:40;17.92;;;2.17;;
5762;SDS011;2906;53.282;9.508;2022-10-16T03:32:44;11.23;;;2.60;;
5762;SDS011;2906;53.282;9.508;2022-10-16T03:33:45;8.52;;;2.20;;
5762;SDS011;2906;53.282;9.508;2022-10-16T03:34:48;7.93;;;1.90;;
5762;SDS011;2906;53.282;9.508;2022-10-16T03:35:50;7.80;;;1.70;;
5762;SDS011;2906;53.282;9.508;2022-10-16T03:36:54;7.35;;;2.00;;
5762;SDS011;2906;53.282;9.508;2022-10-16T03:37:56;10.93;;;2.38;;
5762;SDS011;2906;53.282;9.508;2022-10-16T03:38:57;8.13;;;2.10;;
5762;SDS011;2906;53.282;9.508;2022-10-16T03:39:59;8.27;;;2.05;;
5762;SDS011;2906;53.282;9.508;2022-10-16T03:41:01;9.60;;;1.83;;
5762;SDS011;2906;53.282;9.508;2022-10-16T03:42:03;12.38;;;2.10;;
5762;SDS011;2906;53.282;9.508;2022-10-16T03:43:05;7.40;;;1.98;;
5762;SDS011;2906;53.282;9.508;2022-10-16T03:44:07;7.88;;;1.90;;
5762;SDS011;2906;53.282;9.508;2022-10-16T03:45:08;8.88;;;2.03;;
5762;SDS011;2906;53.282;9.508;2022-10-16T03:46:11;11.40;;;2.40;;
5762;SDS011;2906;53.282;9.508;2022-10-16T03:47:12;9.27;;;2.47;;
5762;SDS011;2906;53.282;9.508;2022-10-16T03:48:16;7.57;;;2.28;;
5762;SDS011;2906;53.282;9.508;2022-10-16T03:49:17;8.35;;;2.30;;
5762;SDS011;2906;53.282;9.508;2022-10-16T03:50:19;10.88;;;2.17;;
5762;SDS011;2906;53.282;9.508;2022-10-16T03:51:20;7.35;;;1.67;;
5762;SDS011;2906;53.282;9.508;2022-10-16T03:52:23;12.43;;;2.40;;
5762;SDS011;2906;53.282;9.508;2022-10-16T03:53:24;8.93;;;2.08;;
5762;SDS011;2906;53.282;9.508;2022-10-16T03:54:27;6.47;;;1.73;;
5762;SDS011;2906;53.282;9.508;2022-10-16T03:55:28;13.15;;;2.20;;
5762;SDS011;2906;53.282;9.508;2022-10-16T03:56:30;9.20;;;2.30;;
5762;SDS011;2906;53.282;9.508;2022-10-16T03:57:31;14.43;;;2.20;;
5762;SDS011;2906;53.282;9.508;2022-10-16T03:58:34;8.93;;;2.42;;
5762;SDS011;2906;53.282;9.508;2022-10-16T03:59:35;16.80;;;2.53;;
5762;SDS011;2906;53.282;9.508;2022-10-16T04:00:39;6.57;;;2.05;;
5762;SDS011;2906;53.282;9.508;2022-10-16T04:01:41;9.05;;;2.35;;
5762;SDS011;2906;53.282;9.508;2022-10-16T04:02:43;12.80;;;2.90;;
5762;SDS011;2906;53.282;9.508;2022-10-16T04:03:46;12.95;;;2.58;;
5762;SDS011;2906;53.282;9.508;2022-10-16T04:04:48;8.48;;;2.40;;
5762;SDS011;2906;53.282;9.508;2022-10-16T04:05:49;12.80;;;2.55;;
5762;SDS011;2906;53.282;9.508;2022-10-16T04:06:52;9.05;;;2.90;;
5762;SDS011;2906;53.282;9.508;2022-10-16T04:07:53;14.32;;;3.72;;
5762;SDS011;2906;53.282;9.508;2022-10-16T04:08:56;9.82;;;2.97;;
5762;SDS011;2906;53.282;9.508;2022-10-16T04:09:57;9.77;;;2.35;;
5762;SDS011;2906;53.282;9.508;2022-10-16T04:11:00;11.32;;;2.90;;
5762;SDS011;2906;53.282;9.508;2022-10-16T04:12:01;8.05;;;2.50;;
5762;SDS011;2906;53.282;9.508;2022-10-16T04:13:03;8.88;;;2.70;;
5762;SDS011;2906;53.282;9.508;2022-10-16T04:14:04;11.05;;;3.30;;
5762;SDS011;2906;53.282;9.508;2022-10-16T04:15:07;16.83;;;3.45;;
5762;SDS011;2906;53.282;9.508;2022-10-16T04:16:08;12.13;;;3.00;;
5762;SDS011;2906;53.282;9.508;2022-10-16T04:17:10;10.68;;;3.50;;
5762;SDS011;2906;53.282;9.508;2022-10-16T04:18:12;11.07;;;2.90;;
5762;SDS011;2906;53.282;9.508;2022-10-16T04:19:15;10.00;;;3.30;;
5762;SDS011;2906;53.282;9.508;2022-10-16T04:20:17;11.70;;;3.42;;
5762;SDS011;2906;53.282;9.508;2022-10-16T04:21:19;9.88;;;3.63;;
5762;SDS011;2906;53.282;9.508;2022-10-16T04:22:20;9.82;;;3.47;;
5762;SDS011;2906;53.282;9.508;2022-10-16T04:23:23;9.45;;;3.72;;
5762;SDS011;2906;53.282;9.508;2022-10-16T04:24:24;9.52;;;3.55;;
5762;SDS011;2906;53.282;9.508;2022-10-16T04:25:26;15.80;;;3.70;;
5762;SDS011;2906;53.282;9.508;2022-10-16T04:26:28;12.10;;;3.58;;
5762;SDS011;2906;53.282;9.508;2022-10-16T04:27:30;12.68;;;3.25;;
5762;SDS011;2906;53.282;9.508;2022-10-16T04:28:31;10.13;;;3.20;;
5762;SDS011;2906;53.282;9.508;2022-10-16T04:29:33;10.77;;;3.45;;
5762;SDS011;2906;53.282;9.508;2022-10-16T04:30:37;10.05;;;4.18;;
5762;SDS011;2906;53.282;9.508;2022-10-16T04:31:39;11.10;;;3.67;;
5762;SDS011;2906;53.282;9.508;2022-10-16T04:32:40;15.15;;;4.53;;
5762;SDS011;2906;53.282;9.508;2022-10-16T04:33:42;15.13;;;4.20;;
5762;SDS011;2906;53.282;9.508;2022-10-16T04:34:45;17.38;;;4.45;;
5762;SDS011;2906;53.282;9.508;2022-10-16T04:35:47;16.65;;;4.00;;
5762;SDS011;2906;53.282;9.508;2022-10-16T04:36:49;9.85;;;3.53;;
5762;SDS011;2906;53.282;9.508;2022-10-16T04:37:51;13.02;;;4.32;;
5762;SDS011;2906;53.282;9.508;2022-10-16T04:38:52;11.95;;;3.53;;
5762;SDS011;2906;53.282;9.508;2022-10-16T04:39:54;10.48;;;3.70;;
5762;SDS011;2906;53.282;9.508;2022-10-16T04:40:56;12.20;;;3.97;;
5762;SDS011;2906;53.282;9.508;2022-10-16T04:41:58;13.15;;;3.95;;
5762;SDS011;2906;53.282;9.508;2022-10-16T04:42:59;18.75;;;4.43;;
5762;SDS011;2906;53.282;9.508;2022-10-16T04:44:02;15.38;;;4.10;;
5762;SDS011;2906;53.282;9.508;2022-10-16T04:45:03;10.90;;;4.05;;
5762;SDS011;2906;53.282;9.508;2022-10-16T04:46:06;20.98;;;4.65;;
5762;SDS011;2906;53.282;9.508;2022-10-16T04:47:07;14.65;;;4.82;;
5762;SDS011;2906;53.282;9.508;2022-10-16T04:48:09;14.02;;;5.15;;
5762;SDS011;2906;53.282;9.508;2022-10-16T04:49:11;13.10;;;4.70;;
5762;SDS011;2906;53.282;9.508;2022-10-16T04:50:14;12.88;;;4.50;;
5762;SDS011;2906;53.282;9.508;2022-10-16T04:51:16;19.20;;;4.72;;
5762;SDS011;2906;53.282;9.508;2022-10-16T04:52:18;15.48;;;4.45;;
5762;SDS011;2906;53.282;9.508;2022-10-16T04:53:21;13.32;;;4.53;;
5762;SDS011;2906;53.282;9.508;2022-10-16T04:54:24;17.15;;;4.63;;
5762;SDS011;2906;53.282;9.508;2022-10-16T04:55:25;15.82;;;4.97;;
5762;SDS011;2906;53.282;9.508;2022-10-16T04:56:27;11.55;;;4.32;;
5762;SDS011;2906;53.282;9.508;2022-10-16T04:57:29;12.55;;;4.18;;
5762;SDS011;2906;53.282;9.508;2022-10-16T04:58:33;11.50;;;4.28;;
5762;SDS011;2906;53.282;9.508;2022-10-16T04:59:34;12.93;;;4.93;;
5762;SDS011;2906;53.282;9.508;2022-10-16T05:00:37;16.67;;;4.90;;
5762;SDS011;2906;53.282;9.508;2022-10-16T05:01:38;12.50;;;4.90;;
5762;SDS011;2906;53.282;9.508;2022-10-16T05:02:40;14.25;;;4.70;;
5762;SDS011;2906;53.282;9.508;2022-10-16T05:03:42;13.40;;;5.30;;
5762;SDS011;2906;53.282;9.508;2022-10-16T05:04:44;14.07;;;5.35;;
5762;SDS011;2906;53.282;9.508;2022-10-16T05:05:47;12.60;;;3.95;;
5762;SDS011;2906;53.282;9.508;2022-10-16T05:06:49;20.13;;;5.03;;
5762;SDS011;2906;53.282;9.508;2022-10-16T05:07:51;12.80;;;4.63;;
5762;SDS011;2906;53.282;9.508;2022-10-16T05:08:53;11.60;;;4.22;;
5762;SDS011;2906;53.282;9.508;2022-10-16T05:09:54;10.35;;;3.90;;
5762;SDS011;2906;53.282;9.508;2022-10-16T05:10:56;10.00;;;3.65;;
5762;SDS011;2906;53.282;9.508;2022-10-16T05:11:57;14.73;;;4.93;;
5762;SDS011;2906;53.282;9.508;2022-10-16T05:12:59;17.27;;;4.65;;
5762;SDS011;2906;53.282;9.508;2022-10-16T05:14:01;12.63;;;4.57;;
5762;SDS011;2906;53.282;9.508;2022-10-16T05:15:03;14.77;;;4.70;;
5762;SDS011;2906;53.282;9.508;2022-10-16T05:16:05;14.63;;;5.30;;
5762;SDS011;2906;53.282;9.508;2022-10-16T05:17:07;23.23;;;4.85;;
5762;SDS011;2906;53.282;9.508;2022-10-16T05:18:09;14.05;;;5.05;;
5762;SDS011;2906;53.282;9.508;2022-10-16T05:19:11;19.65;;;4.82;;
5762;SDS011;2906;53.282;9.508;2022-10-16T05:20:13;11.50;;;4.80;;
5762;SDS011;2906;53.282;9.508;2022-10-16T05:21:16;13.63;;;4.35;;
5762;SDS011;2906;53.282;9.508;2022-10-16T05:22:18;13.35;;;4.40;;
5762;SDS011;2906;53.282;9.508;2022-10-16T05:23:19;14.85;;;4.68;;
5762;SDS011;2906;53.282;9.508;2022-10-16T05:24:21;23.85;;;5.25;;
5762;SDS011;2906;53.282;9.508;2022-10-16T05:25:22;11.25;;;4.50;;
5762;SDS011;2906;53.282;9.508;2022-10-16T05:26:25;12.20;;;5.00;;
5762;SDS011;2906;53.282;9.508;2022-10-16T05:27:26;11.98;;;4.15;;
5762;SDS011;2906;53.282;9.508;2022-10-16T05:28:28;15.55;;;4.18;;
5762;SDS011;2906;53.282;9.508;2022-10-16T05:29:30;14.57;;;4.20;;
5762;SDS011;2906;53.282;9.508;2022-10-16T05:30:32;15.02;;;4.30;;
5762;SDS011;2906;53.282;9.508;2022-10-16T05:31:34;16.00;;;4.10;;
5762;SDS011;2906;53.282;9.508;2022-10-16T05:32:36;11.57;;;4.55;;
5762;SDS011;2906;53.282;9.508;2022-10-16T05:33:38;11.77;;;4.47;;
5762;SDS011;2906;53.282;9.508;2022-10-16T05:34:40;15.45;;;4.70;;
5762;SDS011;2906;53.282;9.508;2022-10-16T05:35:41;17.48;;;4.45;;
5762;SDS011;2906;53.282;9.508;2022-10-16T05:36:45;12.07;;;4.30;;
5762;SDS011;2906;53.282;9.508;2022-10-16T05:37:46;11.80;;;4.25;;
5762;SDS011;2906;53.282;9.508;2022-10-16T05:38:50;12.98;;;5.00;;
5762;SDS011;2906;53.282;9.508;2022-10-16T05:39:51;11.25;;;3.90;;
5762;SDS011;2906;53.282;9.508;2022-10-16T05:40:53;14.93;;;4.47;;
5762;SDS011;2906;53.282;9.508;2022-10-16T05:41:54;17.15;;;5.65;;
5762;SDS011;2906;53.282;9.508;2022-10-16T05:42:57;14.60;;;4.32;;
5762;SDS011;2906;53.282;9.508;2022-10-16T05:43:58;12.60;;;4.47;;
5762;SDS011;2906;53.282;9.508;2022-10-16T05:45:00;14.70;;;4.40;;
5762;SDS011;2906;53.282;9.508;2022-10-16T05:46:03;16.98;;;5.18;;
5762;SDS011;2906;53.282;9.508;2022-10-16T05:47:05;14.68;;;4.50;;
5762;SDS011;2906;53.282;9.508;2022-10-16T05:48:06;14.13;;;5.00;;
5762;SDS011;2906;53.282;9.508;2022-10-16T05:49:09;13.15;;;4.63;;
5762;SDS011;2906;53.282;9.508;2022-10-16T05:50:10;17.00;;;4.60;;
5762;SDS011;2906;53.282;9.508;2022-10-16T05:51:13;14.15;;;4.68;;
5762;SDS011;2906;53.282;9.508;2022-10-16T05:52:16;11.50;;;4.05;;
5762;SDS011;2906;53.282;9.508;2022-10-16T05:53:18;11.30;;;4.68;;
5762;SDS011;2906;53.282;9.508;2022-10-16T05:54:25;10.30;;;4.28;;
5762;SDS011;2906;53.282;9.508;2022-10-16T05:55:27;13.43;;;4.70;;
5762;SDS011;2906;53.282;9.508;2022-10-16T05:56:28;12.38;;;4.47;;
5762;SDS011;2906;53.282;9.508;2022-10-16T05:57:31;16.02;;;5.55;;
5762;SDS011;2906;53.282;9.508;2022-10-16T05:58:32;13.13;;;4.78;;
5762;SDS011;2906;53.282;9.508;2022-10-16T05:59:35;15.90;;;5.03;;
5762;SDS011;2906;53.282;9.508;2022-10-16T06:00:37;12.35;;;4.45;;
5762;SDS011;2906;53.282;9.508;2022-10-16T06:01:39;15.55;;;4.95;;
5762;SDS011;2906;53.282;9.508;2022-10-16T06:02:40;12.25;;;4.75;;
5762;SDS011;2906;53.282;9.508;2022-10-16T06:03:42;11.13;;;4.80;;
5762;SDS011;2906;53.282;9.508;2022-10-16T06:04:44;12.60;;;4.95;;
5762;SDS011;2906;53.282;9.508;2022-10-16T06:05:46;15.88;;;4.63;;
5762;SDS011;2906;53.282;9.508;2022-10-16T06:06:47;13.07;;;4.68;;
5762;SDS011;2906;53.282;9.508;2022-10-16T06:07:50;13.25;;;5.32;;
5762;SDS011;2906;53.282;9.508;2022-10-16T06:08:52;11.68;;;4.72;;
5762;SDS011;2906;53.282;9.508;2022-10-16T06:09:55;11.88;;;4.97;;
5762;SDS011;2906;53.282;9.508;2022-10-16T06:11:03;19.40;;;5.30;;
5762;SDS011;2906;53.282;9.508;2022-10-16T06:12:06;16.13;;;5.18;;
5762;SDS011;2906;53.282;9.508;2022-10-16T06:13:07;14.57;;;4.68;;
5762;SDS011;2906;53.282;9.508;2022-10-16T06:14:09;16.42;;;5.10;;
5762;SDS011;2906;53.282;9.508;2022-10-16T06:15:11;16.75;;;5.68;;
5762;SDS011;2906;53.282;9.508;2022-10-16T06:16:13;15.45;;;5.88;;
5762;SDS011;2906;53.282;9.508;2022-10-16T06:17:14;13.88;;;5.85;;
5762;SDS011;2906;53.282;9.508;2022-10-16T06:18:16;14.10;;;5.65;;
5762;SDS011;2906;53.282;9.508;2022-10-16T06:19:18;17.17;;;6.60;;
5762;SDS011;2906;53.282;9.508;2022-10-16T06:20:20;16.75;;;5.70;;
5762;SDS011;2906;53.282;9.508;2022-10-16T06:21:23;27.25;;;6.70;;
5762;SDS011;2906;53.282;9.508;2022-10-16T06:22:25;20.08;;;7.22;;
5762;SDS011;2906;53.282;9.508;2022-10-16T06:23:29;22.00;;;5.68;;
5762;SDS011;2906;53.282;9.508;2022-10-16T06:24:31;11.73;;;5.60;;
5762;SDS011;2906;53.282;9.508;2022-10-16T06:25:33;15.15;;;5.45;;
5762;SDS011;2906;53.282;9.508;2022-10-16T06:26:35;22.08;;;6.25;;